createdAt,value
2023-02-19T00:00:46.062Z,8.02
2023-02-19T00:03:52.704Z,8.00
2023-02-19T00:06:57.237Z,7.94
2023-02-19T00:10:00.404Z,7.91
2023-02-19T00:13:03.528Z,7.86
2023-02-19T00:16:07.692Z,7.89
2023-02-19T00:19:14.354Z,7.90
2023-02-19T00:22:18.795Z,7.90
2023-02-19T00:25:21.848Z,7.89
2023-02-19T00:28:25.288Z,7.91
2023-02-19T00:31:32.489Z,7.92
2023-02-19T00:34:37.257Z,7.95
2023-02-19T00:37:41.669Z,7.92
2023-02-19T00:40:44.768Z,7.91
2023-02-19T00:43:50.312Z,7.76
2023-02-19T00:46:53.446Z,7.90
2023-02-19T00:49:58.892Z,7.78
2023-02-19T00:53:03.644Z,7.67
2023-02-19T00:56:08.013Z,7.52
2023-02-19T00:59:16.072Z,7.50
2023-02-19T01:02:19.640Z,7.47
2023-02-19T01:05:22.828Z,7.45
2023-02-19T01:08:27.488Z,7.40
2023-02-19T01:11:31.216Z,7.39
2023-02-19T01:14:34.754Z,7.35
2023-02-19T01:17:38.828Z,7.38
2023-02-19T01:20:44.296Z,7.38
2023-02-19T01:23:49.609Z,7.40
2023-02-19T01:26:52.706Z,7.38
2023-02-19T01:29:55.900Z,7.40
2023-02-19T01:32:59.018Z,7.42
2023-02-19T01:36:04.637Z,7.45
2023-02-19T01:39:09.504Z,7.47
2023-02-19T01:42:16.418Z,7.46
2023-02-19T01:45:24.826Z,7.46
2023-02-19T01:48:35.094Z,7.43
2023-02-19T01:51:42.243Z,7.37
2023-02-19T01:54:48.178Z,7.30
2023-02-19T01:57:56.213Z,7.25
2023-02-19T02:00:59.678Z,7.21
2023-02-19T02:04:02.789Z,7.17
2023-02-19T02:07:28.062Z,7.17
2023-02-19T02:10:31.676Z,7.30
2023-02-19T02:13:36.116Z,7.31
2023-02-19T02:16:53.650Z,7.34
2023-02-19T02:20:23.442Z,7.38
2023-02-19T02:23:41.500Z,7.41
2023-02-19T02:27:00.583Z,7.48
2023-02-19T02:30:30.019Z,7.52
2023-02-19T02:33:40.162Z,7.57
2023-02-19T02:36:46.534Z,7.60
2023-02-19T02:39:53.494Z,7.63
2023-02-19T02:42:58.957Z,7.59
2023-02-19T02:46:04.400Z,7.59
2023-02-19T02:49:15.864Z,7.25
2023-02-19T02:52:39.096Z,7.48
2023-02-19T02:55:43.981Z,7.45
2023-02-19T02:58:50.600Z,7.46
2023-02-19T03:02:12.384Z,7.50
2023-02-19T03:05:38.254Z,7.52
2023-02-19T03:08:46.998Z,7.57
2023-02-19T03:12:22.681Z,7.56
2023-02-19T03:15:46.626Z,7.59
2023-02-19T03:19:12.744Z,7.59
2023-02-19T03:22:19.926Z,7.56
2023-02-19T03:25:43.495Z,7.62
2023-02-19T03:29:09.846Z,7.59
2023-02-19T03:32:18.401Z,7.43
2023-02-19T03:35:26.596Z,7.61
2023-02-19T03:38:38.280Z,7.57
2023-02-19T03:41:50.428Z,7.62
2023-02-19T03:45:07.759Z,7.63
2023-02-19T03:48:23.797Z,7.56
2023-02-19T03:51:38.948Z,7.63
2023-02-19T03:54:50.231Z,7.64
2023-02-19T03:57:58.364Z,7.64
2023-02-19T04:01:08.420Z,7.63
2023-02-19T04:04:18.073Z,7.67
2023-02-19T04:07:23.063Z,7.69
2023-02-19T04:10:29.038Z,7.52
2023-02-19T04:13:38.540Z,7.66
2023-02-19T04:16:45.324Z,7.65
2023-02-19T04:19:51.171Z,7.64
2023-02-19T04:22:57.049Z,7.63
2023-02-19T04:26:02.227Z,7.63
2023-02-19T04:29:05.411Z,7.62
2023-02-19T04:34:34.403Z,7.57
2023-02-19T04:37:37.681Z,7.57
2023-02-19T04:40:41.039Z,7.55
2023-02-19T04:43:44.139Z,7.56
2023-02-19T04:46:47.376Z,7.42
2023-02-19T04:49:51.876Z,7.56
2023-02-19T04:52:55.202Z,7.51
2023-02-19T04:55:58.297Z,7.56
2023-02-19T04:59:01.616Z,7.52
2023-02-19T05:02:04.681Z,7.54
2023-02-19T05:05:09.841Z,7.59
2023-02-19T05:08:13.004Z,7.61
2023-02-19T05:11:16.190Z,7.58
2023-02-19T05:14:19.352Z,7.59
2023-02-19T05:17:22.720Z,7.60
2023-02-19T05:20:27.233Z,7.62
2023-02-19T05:23:30.427Z,7.62
2023-02-19T05:26:33.934Z,7.59
2023-02-19T05:29:37.137Z,7.59
2023-02-19T05:32:40.540Z,7.61
2023-02-19T05:35:46.550Z,7.63
2023-02-19T05:38:53.204Z,7.62
2023-02-19T05:41:56.342Z,7.64
2023-02-19T05:44:59.559Z,7.62
2023-02-19T05:48:03.056Z,7.60
2023-02-19T05:51:09.321Z,7.65
2023-02-19T05:54:12.608Z,7.70
2023-02-19T05:57:15.700Z,7.68
2023-02-19T06:00:20.759Z,7.65
2023-02-19T06:03:24.017Z,7.69
2023-02-19T06:06:28.813Z,7.65
2023-02-19T06:09:32.285Z,7.62
2023-02-19T06:12:35.420Z,7.58
2023-02-19T06:15:38.912Z,7.46
2023-02-19T06:18:42.339Z,7.24
2023-02-19T06:21:46.898Z,7.40
2023-02-19T06:24:50.382Z,7.41
2023-02-19T06:27:53.571Z,7.46
2023-02-19T06:30:58.958Z,7.53
2023-02-19T06:34:04.924Z,7.58
2023-02-19T06:37:11.559Z,7.60
2023-02-19T06:40:14.803Z,7.65
2023-02-19T06:43:17.948Z,7.67
2023-02-19T06:46:21.137Z,7.71
2023-02-19T06:49:24.352Z,7.70
2023-02-19T06:52:29.192Z,7.70
2023-02-19T06:55:32.275Z,7.71
2023-02-19T06:58:35.902Z,7.72
2023-02-19T07:01:40.412Z,7.72
2023-02-19T07:04:43.571Z,7.74
2023-02-19T07:07:48.112Z,7.77
2023-02-19T07:11:01.014Z,7.76
2023-02-19T07:14:07.513Z,7.77
2023-02-19T07:17:10.643Z,7.77
2023-02-19T07:20:14.700Z,7.78
2023-02-19T07:23:19.230Z,7.79
2023-02-19T07:26:22.951Z,7.76
2023-02-19T07:29:26.190Z,7.77
2023-02-19T07:32:29.319Z,7.77
2023-02-19T07:35:32.413Z,7.77
2023-02-19T07:38:36.948Z,7.83
2023-02-19T07:41:40.463Z,7.84
2023-02-19T07:44:43.613Z,7.84
2023-02-19T07:47:46.795Z,7.92
2023-02-19T07:50:53.925Z,7.92
2023-02-19T07:53:58.629Z,7.93
2023-02-19T07:57:01.746Z,7.93
2023-02-19T08:00:05.590Z,7.90
2023-02-19T08:03:15.965Z,7.95
2023-02-19T08:06:19.124Z,7.93
2023-02-19T08:09:23.598Z,8.03
2023-02-19T08:12:57.528Z,8.10
2023-02-19T08:16:20.035Z,8.19
2023-02-19T08:19:27.575Z,8.19
2023-02-19T08:22:31.229Z,8.26
2023-02-19T08:25:36.252Z,8.12
2023-02-19T08:28:39.414Z,8.36
2023-02-19T08:31:42.684Z,8.43
2023-02-19T08:34:46.261Z,8.43
2023-02-19T08:37:49.380Z,8.40
2023-02-19T08:40:53.875Z,8.44
2023-02-19T08:43:57.113Z,8.41
2023-02-19T08:47:00.141Z,8.45
2023-02-19T08:50:05.027Z,8.50
2023-02-19T08:53:08.818Z,8.41
2023-02-19T08:56:15.441Z,8.49
2023-02-19T08:59:20.218Z,8.48
2023-02-19T09:02:23.758Z,8.51
2023-02-19T09:05:27.051Z,8.59
2023-02-19T09:08:30.247Z,8.55
2023-02-19T09:11:37.083Z,8.61
2023-02-19T09:14:40.509Z,8.53
2023-02-19T09:17:43.668Z,8.74
2023-02-19T09:20:47.122Z,8.80
2023-02-19T09:23:50.400Z,8.87
2023-02-19T09:26:56.001Z,8.82
2023-02-19T09:29:59.563Z,8.80
2023-02-19T09:33:02.782Z,8.70
2023-02-19T09:36:06.885Z,8.66
2023-02-19T09:39:12.461Z,8.65
2023-02-19T09:42:20.512Z,8.76
2023-02-19T09:45:26.574Z,8.93
2023-02-19T09:48:29.913Z,8.97
2023-02-19T09:51:35.735Z,8.98
2023-02-19T09:54:41.001Z,8.96
2023-02-19T09:57:46.807Z,8.94
2023-02-19T10:00:53.050Z,8.85
2023-02-19T10:03:56.512Z,8.75
2023-02-19T10:07:03.844Z,8.84
2023-02-19T10:10:28.439Z,8.75
2023-02-19T10:13:36.839Z,8.79
2023-02-19T10:16:42.176Z,8.84
2023-02-19T10:19:45.897Z,8.92
2023-02-19T10:22:49.788Z,8.91
2023-02-19T10:25:57.078Z,8.93
2023-02-19T10:29:02.040Z,8.92
2023-02-19T10:34:34.520Z,8.93
2023-02-19T10:37:44.171Z,8.90
2023-02-19T10:40:48.206Z,8.95
2023-02-19T10:43:55.561Z,8.93
2023-02-19T10:47:02.044Z,9.24
2023-02-19T10:50:08.821Z,9.19
2023-02-19T10:53:23.071Z,9.18
2023-02-19T10:56:28.832Z,9.09
2023-02-19T10:59:32.140Z,9.01
2023-02-19T11:02:35.372Z,9.27
2023-02-19T11:05:42.574Z,9.27
2023-02-19T11:08:54.778Z,9.23
2023-02-19T11:11:59.428Z,9.20
2023-02-19T11:15:18.685Z,9.07
2023-02-19T11:18:24.467Z,9.03
2023-02-19T11:21:33.066Z,9.03
2023-02-19T11:24:40.578Z,8.88
2023-02-19T11:27:56.032Z,8.51
2023-02-19T11:31:16.158Z,8.07
2023-02-19T11:34:29.800Z,8.16
2023-02-19T11:37:34.562Z,8.16
2023-02-19T11:40:42.187Z,8.16
2023-02-19T11:44:07.262Z,8.21
2023-02-19T11:47:32.636Z,8.28
2023-02-19T11:51:02.379Z,8.36
2023-02-19T11:54:19.528Z,8.37
2023-02-19T11:57:37.167Z,8.16
2023-02-19T12:00:49.406Z,8.66
2023-02-19T12:04:26.994Z,8.38
2023-02-19T12:07:58.368Z,8.65
2023-02-19T12:11:17.159Z,8.65
2023-02-19T12:14:48.124Z,8.71
2023-02-19T12:18:11.423Z,8.72
2023-02-19T12:21:29.846Z,8.81
2023-02-19T12:24:48.842Z,8.83
2023-02-19T12:28:11.184Z,8.94
2023-02-19T12:31:37.465Z,8.99
2023-02-19T12:35:06.907Z,8.77
2023-02-19T12:38:32.455Z,8.77
2023-02-19T12:41:44.172Z,8.91
2023-02-19T12:44:55.237Z,9.30
2023-02-19T12:48:02.541Z,9.45
2023-02-19T12:51:13.183Z,9.65
2023-02-19T12:54:21.103Z,9.41
2023-02-19T12:57:26.846Z,9.51
2023-02-19T13:00:39.398Z,9.47
2023-02-19T13:03:49.264Z,9.73
2023-02-19T13:06:56.485Z,9.72
2023-02-19T13:10:06.848Z,9.55
2023-02-19T13:13:20.118Z,9.06
2023-02-19T13:16:25.875Z,9.46
2023-02-19T13:19:30.120Z,9.38
2023-02-19T13:22:57.865Z,9.38
2023-02-19T13:26:20.555Z,9.22
2023-02-19T13:29:38.558Z,9.13
2023-02-19T13:33:03.265Z,8.62
2023-02-19T13:36:13.077Z,8.03
2023-02-19T13:39:17.953Z,8.79
2023-02-19T13:42:34.110Z,8.78
2023-02-19T13:45:40.942Z,8.77
2023-02-19T13:48:45.538Z,8.88
2023-02-19T13:51:51.319Z,8.86
2023-02-19T13:55:33.182Z,8.90
2023-02-19T13:58:40.592Z,8.82
2023-02-19T14:02:29.021Z,8.40
2023-02-19T14:06:00.203Z,8.85
2023-02-19T14:09:03.713Z,8.93
2023-02-19T14:12:20.320Z,8.93
2023-02-19T14:15:43.849Z,8.71
2023-02-19T14:18:47.684Z,8.60
2023-02-19T14:21:50.813Z,8.70
2023-02-19T14:24:56.281Z,8.58
2023-02-19T14:28:04.118Z,8.53
2023-02-19T14:31:19.711Z,8.46
2023-02-19T14:34:27.078Z,8.31
2023-02-19T14:37:30.410Z,8.30
2023-02-19T14:40:41.521Z,8.26
2023-02-19T14:43:46.348Z,8.29
2023-02-19T14:46:58.381Z,8.28
2023-02-19T14:50:04.343Z,8.27
2023-02-19T14:53:09.369Z,8.14
2023-02-19T14:56:21.771Z,8.22
2023-02-19T14:59:28.955Z,8.24
2023-02-19T15:02:33.663Z,8.22
2023-02-19T15:05:38.558Z,8.24
2023-02-19T15:08:46.256Z,8.27
2023-02-19T15:11:49.924Z,8.33
2023-02-19T15:14:57.422Z,8.30
2023-02-19T15:18:03.778Z,8.39
2023-02-19T15:21:08.090Z,8.46
2023-02-19T15:24:14.437Z,8.49
2023-02-19T15:27:20.483Z,8.40
2023-02-19T15:30:25.806Z,8.35
2023-02-19T15:33:30.493Z,8.25
2023-02-19T15:36:35.836Z,7.96
2023-02-19T15:39:40.736Z,8.11
2023-02-19T15:42:46.937Z,8.09
2023-02-19T15:45:52.468Z,8.01
2023-02-19T15:49:03.813Z,7.93
2023-02-19T15:52:11.673Z,7.83
2023-02-19T15:55:26.117Z,7.91
2023-02-19T15:58:33.598Z,7.91
2023-02-19T16:01:38.555Z,7.93
2023-02-19T16:04:45.014Z,7.94
2023-02-19T16:07:48.264Z,7.91
2023-02-19T16:10:56.679Z,7.93
2023-02-19T16:14:24.058Z,7.83
2023-02-19T16:17:28.277Z,7.79
2023-02-19T16:20:35.541Z,7.71
2023-02-19T16:23:43.742Z,7.74
2023-02-19T16:26:47.243Z,7.73
2023-02-19T16:29:52.451Z,7.56
2023-02-19T16:34:43.277Z,7.73
2023-02-19T16:37:58.298Z,7.67
2023-02-19T16:41:13.726Z,7.62
2023-02-19T16:44:31.609Z,7.63
2023-02-19T16:47:38.004Z,7.56
2023-02-19T16:50:42.666Z,7.56
2023-02-19T16:53:45.980Z,7.56
2023-02-19T16:56:49.123Z,7.54
2023-02-19T16:59:52.282Z,7.50
2023-02-19T17:02:58.350Z,7.34
2023-02-19T17:06:02.952Z,7.45
2023-02-19T17:09:06.534Z,7.41
2023-02-19T17:12:12.996Z,7.42
2023-02-19T17:15:16.306Z,7.31
2023-02-19T17:18:19.586Z,7.50
2023-02-19T17:21:26.079Z,7.43
2023-02-19T17:24:29.167Z,7.45
2023-02-19T17:27:32.284Z,7.37
2023-02-19T17:30:37.307Z,7.30
2023-02-19T17:33:42.660Z,7.15
2023-02-19T17:36:49.207Z,7.26
2023-02-19T17:39:52.365Z,7.18
2023-02-19T17:42:55.523Z,7.13
2023-02-19T17:45:58.699Z,7.18
2023-02-19T17:49:01.853Z,7.14
2023-02-19T17:52:06.684Z,7.15
2023-02-19T17:55:11.081Z,7.05
2023-02-19T17:58:14.784Z,7.12
2023-02-19T18:01:18.521Z,7.06
2023-02-19T18:04:21.905Z,7.12
2023-02-19T18:07:26.487Z,7.11
2023-02-19T18:10:30.463Z,7.07
2023-02-19T18:13:33.633Z,7.09
2023-02-19T18:16:36.791Z,7.11
2023-02-19T18:19:40.645Z,7.06
2023-02-19T18:22:45.245Z,7.04
2023-02-19T18:25:48.564Z,6.94
2023-02-19T18:28:51.724Z,7.17
2023-02-19T18:31:55.324Z,7.12
2023-02-19T18:35:00.073Z,7.12
2023-02-19T18:38:04.644Z,7.16
2023-02-19T18:41:12.502Z,7.22
2023-02-19T18:44:19.006Z,7.25
2023-02-19T18:47:25.118Z,7.23
2023-02-19T18:50:28.542Z,7.25
2023-02-19T18:53:33.072Z,7.26
2023-02-19T18:56:42.247Z,7.27
2023-02-19T18:59:45.578Z,7.26
2023-02-19T19:02:51.170Z,7.22
2023-02-19T19:05:55.098Z,7.25
2023-02-19T19:09:00.088Z,7.20
2023-02-19T19:12:04.045Z,7.16
2023-02-19T19:15:07.622Z,7.03
2023-02-19T19:18:11.298Z,7.14
2023-02-19T19:21:15.799Z,7.15
2023-02-19T19:24:20.678Z,7.14
2023-02-19T19:27:23.972Z,7.08
2023-02-19T19:30:27.247Z,7.08
2023-02-19T19:33:30.603Z,7.00
2023-02-19T19:36:34.089Z,7.05
2023-02-19T19:39:38.718Z,7.03
2023-02-19T19:42:44.201Z,7.02
2023-02-19T19:45:47.673Z,7.00
2023-02-19T19:48:52.745Z,7.00
2023-02-19T19:51:58.595Z,6.95
2023-02-19T19:55:03.287Z,6.91
2023-02-19T19:58:06.924Z,6.91
2023-02-19T20:01:10.901Z,6.91
2023-02-19T20:04:14.223Z,6.92
2023-02-19T20:07:17.448Z,6.94
2023-02-19T20:10:22.275Z,6.90
2023-02-19T20:13:26.435Z,6.92
2023-02-19T20:16:29.869Z,6.89
2023-02-19T20:19:33.180Z,6.86
2023-02-19T20:22:36.707Z,6.88
2023-02-19T20:25:41.203Z,6.83
2023-02-19T20:28:46.362Z,6.80
2023-02-19T20:31:51.418Z,6.74
2023-02-19T20:34:54.828Z,6.73
2023-02-19T20:37:57.954Z,6.56
2023-02-19T20:41:02.540Z,6.62
2023-02-19T20:44:06.044Z,6.43
2023-02-19T20:47:09.137Z,6.53
2023-02-19T20:50:13.016Z,6.60
2023-02-19T20:53:16.153Z,6.60
2023-02-19T20:56:20.666Z,6.59
2023-02-19T20:59:27.040Z,6.55
2023-02-19T21:02:30.197Z,6.44
2023-02-19T21:05:33.475Z,6.40
2023-02-19T21:08:36.617Z,6.37
2023-02-19T21:11:41.128Z,6.37
2023-02-19T21:14:44.310Z,6.40
2023-02-19T21:17:47.524Z,6.41
2023-02-19T21:20:50.657Z,6.42
2023-02-19T21:23:54.296Z,6.46
2023-02-19T21:26:58.778Z,6.40
2023-02-19T21:30:01.894Z,6.42
2023-02-19T21:33:05.325Z,6.45
2023-02-19T21:36:09.873Z,6.42
2023-02-19T21:39:16.168Z,6.41
2023-02-19T21:42:20.852Z,6.47
2023-02-19T21:45:24.495Z,6.48
2023-02-19T21:48:27.621Z,6.46
2023-02-19T21:51:33.104Z,6.43
2023-02-19T21:54:36.226Z,6.48
2023-02-19T21:57:40.977Z,6.50
2023-02-19T22:00:44.473Z,6.49
2023-02-19T22:03:47.866Z,6.48
2023-02-19T22:06:51.289Z,6.45
2023-02-19T22:09:54.718Z,6.47
2023-02-19T22:12:59.198Z,6.41
2023-02-19T22:16:02.472Z,6.37
2023-02-19T22:19:05.947Z,6.43
2023-02-19T22:22:09.037Z,6.42
2023-02-19T22:25:12.206Z,6.39
2023-02-19T22:28:16.867Z,6.41
2023-02-19T22:34:33.786Z,6.45
2023-02-19T22:37:37.029Z,6.53
2023-02-19T22:40:40.169Z,6.46
2023-02-19T22:43:43.519Z,6.51
2023-02-19T22:46:49.049Z,6.54
2023-02-19T22:49:53.514Z,6.56
2023-02-19T22:52:56.702Z,6.58
2023-02-19T22:55:59.863Z,6.60
2023-02-19T22:59:02.989Z,6.60
2023-02-19T23:02:06.099Z,6.58
2023-02-19T23:05:10.670Z,6.62
2023-02-19T23:08:13.835Z,6.61
2023-02-19T23:11:22.203Z,6.67
2023-02-19T23:14:25.379Z,6.62
2023-02-19T23:17:28.781Z,6.64
2023-02-19T23:20:33.488Z,6.69
2023-02-19T23:23:37.109Z,6.69
2023-02-19T23:26:43.387Z,6.64
2023-02-19T23:29:47.316Z,6.67
2023-02-19T23:32:50.445Z,6.67
2023-02-19T23:35:54.902Z,6.64
2023-02-19T23:38:58.165Z,6.65
2023-02-19T23:42:01.206Z,6.61
2023-02-19T23:45:04.710Z,6.62
2023-02-19T23:48:08.016Z,6.56
2023-02-19T23:51:14.009Z,6.53
2023-02-19T23:54:17.251Z,6.60
2023-02-19T23:57:20.587Z,6.43
